createdAt,value
2022-12-27T06:42:39.818Z,2.00
2022-12-27T06:45:07.157Z,1.83
2022-12-27T06:47:33.609Z,1.80
2022-12-27T06:50:00.111Z,1.65
2022-12-27T06:52:26.678Z,1.50
2022-12-27T06:54:53.163Z,1.50
2022-12-27T06:57:19.638Z,1.25
2022-12-27T06:59:50.972Z,1.65
2022-12-27T07:02:20.590Z,1.40
2022-12-27T07:04:47.110Z,1.13
2022-12-27T07:07:15.882Z,1.20
2022-12-27T07:09:42.639Z,1.33
2022-12-27T07:12:09.091Z,1.02
2022-12-27T07:14:35.741Z,1.20
2022-12-27T07:17:04.188Z,1.30
2022-12-27T07:19:30.694Z,1.00
2022-12-27T07:21:57.174Z,1.10
2022-12-27T07:24:23.621Z,0.90
2022-12-27T07:26:50.059Z,0.85
2022-12-27T07:29:16.636Z,1.02
2022-12-27T07:31:45.149Z,1.00
2022-12-27T07:34:11.710Z,0.90
2022-12-27T07:36:39.567Z,0.90
2022-12-27T07:39:07.184Z,0.88
2022-12-27T07:41:34.411Z,0.90
2022-12-27T07:44:00.923Z,1.00
2022-12-27T07:46:27.540Z,0.80
2022-12-27T07:48:55.801Z,0.80
2022-12-27T07:51:22.931Z,0.80
2022-12-27T07:53:50.020Z,0.90
2022-12-27T07:56:25.434Z,0.80
2022-12-27T07:58:52.783Z,1.10
2022-12-27T08:01:20.769Z,1.00
2022-12-27T08:03:47.870Z,0.82
2022-12-27T08:06:27.702Z,0.82
2022-12-27T08:08:55.496Z,0.80
2022-12-27T08:11:23.144Z,0.82
2022-12-27T08:13:49.659Z,0.80
2022-12-27T08:16:21.076Z,0.90
2022-12-27T08:18:47.970Z,1.05
2022-12-27T08:21:14.643Z,1.13
2022-12-27T08:23:41.264Z,0.82
2022-12-27T08:26:08.453Z,1.00
2022-12-27T08:28:35.448Z,1.20
2022-12-27T08:31:02.051Z,1.00
2022-12-27T08:33:28.719Z,1.20
2022-12-27T08:35:57.142Z,0.93
2022-12-27T08:38:23.601Z,1.02
2022-12-27T08:40:50.066Z,1.10
2022-12-27T08:43:16.607Z,0.90
2022-12-27T08:45:43.247Z,0.87
2022-12-27T08:48:09.808Z,0.93
2022-12-27T08:50:36.872Z,1.10
2022-12-27T08:53:04.719Z,1.10
2022-12-27T08:55:32.110Z,1.00
2022-12-27T08:58:00.164Z,1.13
2022-12-27T09:00:27.429Z,0.93
